DLH292 EPKK-EDDH
Flight info
| Callsign | DLH292 |
|---|---|
| Flight time | 1h 22m |
| Altitude | 32000 |
| Route | OMFOL1J OMFOL T738 LASIS DCT BOLBO DCT ESIKA DCT SOGMA M748 RARUP RARUP6A |
| Aircraft | A320/M-SDE3FGHIRWY/LB1 |
Departure
| Time | 2026-04-30 18:06 |
|---|---|
| Airport | Kraków John Paul II International Airport (EPKK) |
Arrival
| Time | 2026-04-30 19:29 |
|---|---|
| Airport | Hamburg Helmut Schmidt Airport (EDDH) |
| Time | Latitude | Longitude | Altitude | Speed | Heading |
|---|---|---|---|---|---|
| 2026-04-30 17:39 | 50.07321 | 19.80111 | 791 ft | 0 kts | 168° |
| 2026-04-30 17:41 | 50.07321 | 19.80110 | 791 ft | 0 kts | 168° |
| 2026-04-30 17:53 | 50.07322 | 19.80110 | 791 ft | 0 kts | 168° |
| 2026-04-30 17:57 | 50.07329 | 19.80108 | 791 ft | 4 kts | 167° |
| 2026-04-30 17:58 | 50.07398 | 19.80051 | 791 ft | 4 kts | 112° |
| 2026-04-30 17:59 | 50.07401 | 19.80029 | 791 ft | 0 kts | 78° |
| 2026-04-30 18:01 | 50.07408 | 19.80080 | 791 ft | 11 kts | 78° |
| 2026-04-30 18:02 | 50.07436 | 19.80278 | 791 ft | 0 kts | 79° |
| 2026-04-30 18:02 | 50.07590 | 19.80422 | 791 ft | 13 kts | 356° |
| 2026-04-30 18:03 | 50.07842 | 19.80337 | 791 ft | 0 kts | 347° |
| 2026-04-30 18:04 | 50.07931 | 19.80305 | 791 ft | 9 kts | 347° |
| 2026-04-30 18:05 | 50.07631 | 19.77531 | 861 ft | 165 kts | 261° |
| 2026-04-30 18:06 | 50.06647 | 19.70102 | 2935 ft | 203 kts | 260° |
| 2026-04-30 18:07 | 50.05207 | 19.60053 | 5030 ft | 264 kts | 260° |
| 2026-04-30 18:08 | 50.03973 | 19.51493 | 7601 ft | 278 kts | 260° |
| 2026-04-30 18:09 | 50.05691 | 19.39849 | 10653 ft | 293 kts | 297° |
| 2026-04-30 18:10 | 50.09106 | 19.26737 | 12708 ft | 344 kts | 297° |
| 2026-04-30 18:11 | 50.12725 | 19.12520 | 15377 ft | 361 kts | 298° |
| 2026-04-30 18:11 | 50.15549 | 19.01463 | 17251 ft | 371 kts | 298° |
| 2026-04-30 18:12 | 50.18443 | 18.90087 | 19067 ft | 381 kts | 298° |
| 2026-04-30 18:13 | 50.20400 | 18.82310 | 20112 ft | 388 kts | 299° |
| 2026-04-30 18:13 | 50.23057 | 18.71722 | 21448 ft | 398 kts | 299° |
| 2026-04-30 18:14 | 50.25434 | 18.62216 | 22527 ft | 406 kts | 300° |
| 2026-04-30 18:15 | 50.28551 | 18.49711 | 23925 ft | 417 kts | 300° |
| 2026-04-30 18:15 | 50.31711 | 18.36954 | 25065 ft | 426 kts | 300° |
| 2026-04-30 18:16 | 50.33865 | 18.28202 | 25811 ft | 431 kts | 301° |
| 2026-04-30 18:16 | 50.36016 | 18.19439 | 26529 ft | 437 kts | 301° |
| 2026-04-30 18:17 | 50.37109 | 18.14982 | 26879 ft | 439 kts | 301° |
| 2026-04-30 18:17 | 50.38222 | 18.10440 | 27238 ft | 442 kts | 301° |
| 2026-04-30 18:17 | 50.40412 | 18.01452 | 27918 ft | 447 kts | 301° |
| 2026-04-30 18:18 | 50.41519 | 17.96883 | 28275 ft | 450 kts | 301° |
| 2026-04-30 18:18 | 50.42631 | 17.92283 | 28613 ft | 453 kts | 301° |
| 2026-04-30 18:18 | 50.43756 | 17.87629 | 28777 ft | 460 kts | 301° |
| 2026-04-30 18:18 | 50.44897 | 17.82907 | 28879 ft | 466 kts | 301° |
| 2026-04-30 18:19 | 50.46100 | 17.78163 | 29019 ft | 469 kts | 303° |
| 2026-04-30 18:19 | 50.47407 | 17.73451 | 29164 ft | 473 kts | 305° |
| 2026-04-30 18:19 | 50.48788 | 17.68751 | 29297 ft | 477 kts | 306° |
| 2026-04-30 18:19 | 50.50212 | 17.64023 | 29453 ft | 481 kts | 306° |
| 2026-04-30 18:20 | 50.51644 | 17.59257 | 29781 ft | 482 kts | 306° |
| 2026-04-30 18:20 | 50.53053 | 17.54475 | 30131 ft | 483 kts | 305° |
| 2026-04-30 18:20 | 50.54445 | 17.49648 | 30406 ft | 486 kts | 305° |
| 2026-04-30 18:20 | 50.55817 | 17.44803 | 30773 ft | 483 kts | 304° |
| 2026-04-30 18:21 | 50.57166 | 17.39991 | 31149 ft | 482 kts | 304° |
| 2026-04-30 18:21 | 50.58526 | 17.35151 | 31296 ft | 485 kts | 304° |
| 2026-04-30 18:21 | 50.59895 | 17.30290 | 31513 ft | 487 kts | 304° |
| 2026-04-30 18:21 | 50.61272 | 17.25417 | 31750 ft | 488 kts | 304° |
| 2026-04-30 18:22 | 50.62652 | 17.20534 | 31970 ft | 489 kts | 304° |
| 2026-04-30 18:22 | 50.65394 | 17.10777 | 32408 ft | 485 kts | 304° |
| 2026-04-30 18:22 | 50.66757 | 17.05923 | 32415 ft | 485 kts | 304° |
| 2026-04-30 18:23 | 50.69473 | 16.96232 | 32419 ft | 482 kts | 304° |
| 2026-04-30 18:23 | 50.72159 | 16.86524 | 32419 ft | 483 kts | 303° |
| 2026-04-30 18:24 | 50.74730 | 16.76910 | 32419 ft | 471 kts | 303° |
| 2026-04-30 18:24 | 50.75995 | 16.72150 | 32417 ft | 470 kts | 303° |
| 2026-04-30 18:25 | 50.78564 | 16.62586 | 32424 ft | 475 kts | 303° |
| 2026-04-30 18:25 | 50.82427 | 16.48147 | 32427 ft | 476 kts | 303° |
| 2026-04-30 18:26 | 50.86266 | 16.33663 | 32427 ft | 476 kts | 302° |
| 2026-04-30 18:27 | 50.90091 | 16.19165 | 32381 ft | 476 kts | 302° |
| 2026-04-30 18:28 | 50.94432 | 16.05342 | 32430 ft | 452 kts | 318° |
| 2026-04-30 18:28 | 51.00249 | 15.93555 | 32429 ft | 452 kts | 318° |
| 2026-04-30 18:29 | 51.08042 | 15.77911 | 32419 ft | 451 kts | 317° |
| 2026-04-30 18:30 | 51.15790 | 15.62167 | 32428 ft | 452 kts | 317° |
| 2026-04-30 18:31 | 51.21600 | 15.50342 | 32429 ft | 452 kts | 317° |
| 2026-04-30 18:32 | 51.27372 | 15.38533 | 32421 ft | 452 kts | 316° |
| 2026-04-30 18:33 | 51.33173 | 15.26581 | 32427 ft | 457 kts | 316° |
| 2026-04-30 18:33 | 51.39023 | 15.14483 | 32428 ft | 458 kts | 316° |
| 2026-04-30 18:34 | 51.44868 | 15.02364 | 32396 ft | 458 kts | 316° |
| 2026-04-30 18:35 | 51.48767 | 14.94256 | 32429 ft | 459 kts | 315° |
| 2026-04-30 18:35 | 51.52659 | 14.86120 | 32431 ft | 459 kts | 315° |
| 2026-04-30 18:36 | 51.58476 | 14.73883 | 32432 ft | 459 kts | 315° |
| 2026-04-30 18:37 | 51.64287 | 14.61646 | 32403 ft | 458 kts | 314° |
| 2026-04-30 18:37 | 51.68143 | 14.53479 | 32429 ft | 458 kts | 314° |
| 2026-04-30 18:38 | 51.71345 | 14.46679 | 32431 ft | 458 kts | 314° |
| 2026-04-30 18:38 | 51.75222 | 14.38422 | 32431 ft | 458 kts | 314° |
| 2026-04-30 18:39 | 51.79038 | 14.30266 | 32426 ft | 458 kts | 314° |
| 2026-04-30 18:39 | 51.82871 | 14.22037 | 32429 ft | 458 kts | 314° |
| 2026-04-30 18:40 | 51.86704 | 14.13798 | 32426 ft | 458 kts | 314° |
| 2026-04-30 18:40 | 51.90534 | 14.05550 | 32425 ft | 459 kts | 314° |
| 2026-04-30 18:41 | 51.94356 | 13.97279 | 32419 ft | 458 kts | 314° |
| 2026-04-30 18:41 | 51.98168 | 13.89003 | 32423 ft | 458 kts | 314° |
| 2026-04-30 18:42 | 52.01974 | 13.80722 | 32414 ft | 457 kts | 313° |
| 2026-04-30 18:42 | 52.07669 | 13.68271 | 32419 ft | 458 kts | 313° |
| 2026-04-30 18:45 | 52.28441 | 13.22308 | 32417 ft | 457 kts | 311° |
| 2026-04-30 18:46 | 52.32188 | 13.13912 | 32421 ft | 457 kts | 311° |
| 2026-04-30 18:46 | 52.35930 | 13.05518 | 32424 ft | 457 kts | 311° |
| 2026-04-30 18:47 | 52.39675 | 12.97099 | 32422 ft | 457 kts | 311° |
| 2026-04-30 18:47 | 52.43410 | 12.88661 | 32429 ft | 458 kts | 311° |
| 2026-04-30 18:48 | 52.47124 | 12.80256 | 32439 ft | 458 kts | 311° |
| 2026-04-30 18:48 | 52.50854 | 12.71784 | 32434 ft | 458 kts | 311° |
| 2026-04-30 18:49 | 52.54576 | 12.63294 | 32432 ft | 458 kts | 311° |
| 2026-04-30 18:49 | 52.58295 | 12.54794 | 32439 ft | 458 kts | 310° |
| 2026-04-30 18:50 | 52.61994 | 12.46298 | 32102 ft | 455 kts | 310° |
| 2026-04-30 18:50 | 52.63635 | 12.42507 | 31736 ft | 449 kts | 310° |
| 2026-04-30 18:50 | 52.65430 | 12.38357 | 31331 ft | 439 kts | 310° |
| 2026-04-30 18:50 | 52.67184 | 12.34304 | 30942 ft | 431 kts | 310° |
| 2026-04-30 18:51 | 52.68909 | 12.30315 | 30551 ft | 423 kts | 310° |
| 2026-04-30 18:51 | 52.70598 | 12.26394 | 30109 ft | 416 kts | 310° |
| 2026-04-30 18:51 | 52.72257 | 12.22538 | 29634 ft | 410 kts | 310° |
| 2026-04-30 18:51 | 52.73899 | 12.18723 | 29128 ft | 405 kts | 310° |
| 2026-04-30 18:52 | 52.75516 | 12.14966 | 28635 ft | 400 kts | 311° |
| 2026-04-30 18:52 | 52.77121 | 12.11240 | 28140 ft | 395 kts | 310° |
| 2026-04-30 18:52 | 52.78698 | 12.07571 | 27650 ft | 390 kts | 310° |
| 2026-04-30 18:52 | 52.80260 | 12.03924 | 27187 ft | 386 kts | 310° |
| 2026-04-30 18:53 | 52.81798 | 12.00323 | 26739 ft | 384 kts | 310° |
| 2026-04-30 18:53 | 52.83366 | 11.96663 | 26284 ft | 394 kts | 310° |
| 2026-04-30 18:53 | 52.84954 | 11.92953 | 25839 ft | 395 kts | 310° |
| 2026-04-30 18:53 | 52.86538 | 11.89234 | 25401 ft | 394 kts | 310° |
| 2026-04-30 18:54 | 52.88109 | 11.85528 | 24982 ft | 393 kts | 310° |
| 2026-04-30 18:54 | 52.89675 | 11.81831 | 24555 ft | 390 kts | 310° |
| 2026-04-30 18:54 | 52.91231 | 11.78160 | 24418 ft | 390 kts | 310° |
| 2026-04-30 18:54 | 52.92789 | 11.74488 | 24436 ft | 390 kts | 310° |
| 2026-04-30 18:55 | 52.94351 | 11.70794 | 24419 ft | 391 kts | 310° |
| 2026-04-30 18:55 | 52.97466 | 11.63396 | 24438 ft | 391 kts | 310° |
| 2026-04-30 18:55 | 52.99022 | 11.59700 | 24442 ft | 391 kts | 310° |
| 2026-04-30 18:56 | 53.02220 | 11.52410 | 24430 ft | 386 kts | 319° |
| 2026-04-30 18:56 | 53.04223 | 11.49480 | 24052 ft | 383 kts | 325° |
| 2026-04-30 18:56 | 53.06285 | 11.46686 | 23373 ft | 382 kts | 326° |
| 2026-04-30 18:57 | 53.10439 | 11.41156 | 22048 ft | 382 kts | 326° |
| 2026-04-30 18:57 | 53.12517 | 11.38387 | 21409 ft | 383 kts | 326° |
| 2026-04-30 18:57 | 53.14594 | 11.35608 | 20775 ft | 383 kts | 326° |
| 2026-04-30 18:58 | 53.18738 | 11.30025 | 19544 ft | 384 kts | 326° |
| 2026-04-30 18:58 | 53.20815 | 11.27211 | 18955 ft | 384 kts | 325° |
| 2026-04-30 18:58 | 53.22877 | 11.24410 | 18485 ft | 380 kts | 325° |
| 2026-04-30 18:59 | 53.26934 | 11.18884 | 17538 ft | 373 kts | 325° |
| 2026-04-30 19:00 | 53.32892 | 11.10783 | 16159 ft | 364 kts | 325° |
| 2026-04-30 19:00 | 53.34847 | 11.08124 | 15718 ft | 361 kts | 325° |
| 2026-04-30 19:00 | 53.38733 | 11.02989 | 14849 ft | 352 kts | 334° |
| 2026-04-30 19:01 | 53.43218 | 10.99992 | 13953 ft | 338 kts | 345° |
| 2026-04-30 19:01 | 53.45379 | 10.98690 | 13502 ft | 324 kts | 345° |
| 2026-04-30 19:02 | 53.49437 | 10.96222 | 12718 ft | 298 kts | 344° |
| 2026-04-30 19:02 | 53.53193 | 10.93930 | 11963 ft | 277 kts | 345° |
| 2026-04-30 19:03 | 53.56705 | 10.91780 | 11433 ft | 261 kts | 345° |
| 2026-04-30 19:03 | 53.60119 | 10.89700 | 11446 ft | 261 kts | 345° |
| 2026-04-30 19:04 | 53.63529 | 10.87620 | 11451 ft | 261 kts | 343° |
| 2026-04-30 19:04 | 53.66147 | 10.83419 | 11459 ft | 276 kts | 291° |
| 2026-04-30 19:05 | 53.65903 | 10.77029 | 11463 ft | 281 kts | 253° |
| 2026-04-30 19:05 | 53.64743 | 10.70723 | 11450 ft | 282 kts | 252° |
| 2026-04-30 19:06 | 53.63572 | 10.64414 | 11448 ft | 282 kts | 252° |
| 2026-04-30 19:06 | 53.62973 | 10.61258 | 11265 ft | 283 kts | 252° |
| 2026-04-30 19:06 | 53.61781 | 10.54752 | 10653 ft | 283 kts | 252° |
| 2026-04-30 19:07 | 53.60569 | 10.48551 | 10410 ft | 276 kts | 252° |
| 2026-04-30 19:07 | 53.59969 | 10.45481 | 10455 ft | 276 kts | 252° |
| 2026-04-30 19:08 | 53.58773 | 10.39330 | 10440 ft | 276 kts | 247° |
| 2026-04-30 19:08 | 53.56099 | 10.35256 | 10422 ft | 264 kts | 191° |
| 2026-04-30 19:08 | 53.54304 | 10.34643 | 10178 ft | 262 kts | 185° |
| 2026-04-30 19:09 | 53.50733 | 10.33685 | 9647 ft | 258 kts | 184° |
| 2026-04-30 19:09 | 53.48961 | 10.33219 | 9390 ft | 257 kts | 184° |
| 2026-04-30 19:09 | 53.47195 | 10.32755 | 9047 ft | 257 kts | 184° |
| 2026-04-30 19:10 | 53.43941 | 10.30455 | 8434 ft | 263 kts | 229° |
| 2026-04-30 19:10 | 53.43243 | 10.24635 | 8442 ft | 266 kts | 290° |
| 2026-04-30 19:11 | 53.44190 | 10.22041 | 8438 ft | 260 kts | 321° |
| 2026-04-30 19:11 | 53.47422 | 10.19932 | 8440 ft | 251 kts | 354° |
| 2026-04-30 19:11 | 53.49139 | 10.19398 | 8437 ft | 251 kts | 354° |
| 2026-04-30 19:12 | 53.50860 | 10.18878 | 8437 ft | 251 kts | 354° |
| 2026-04-30 19:12 | 53.52581 | 10.18365 | 8220 ft | 252 kts | 354° |
| 2026-04-30 19:12 | 53.54281 | 10.17862 | 7878 ft | 251 kts | 354° |
| 2026-04-30 19:13 | 53.57346 | 10.15206 | 7135 ft | 262 kts | 306° |
| 2026-04-30 19:13 | 53.57736 | 10.09383 | 6386 ft | 260 kts | 244° |
| 2026-04-30 19:13 | 53.56787 | 10.06819 | 6004 ft | 257 kts | 231° |
| 2026-04-30 19:14 | 53.55709 | 10.04423 | 5635 ft | 258 kts | 230° |
| 2026-04-30 19:14 | 53.54609 | 10.02037 | 5259 ft | 257 kts | 229° |
| 2026-04-30 19:14 | 53.53524 | 9.99697 | 5007 ft | 249 kts | 229° |
| 2026-04-30 19:14 | 53.52469 | 9.97423 | 5008 ft | 245 kts | 229° |
| 2026-04-30 19:15 | 53.51422 | 9.95169 | 5010 ft | 245 kts | 229° |
| 2026-04-30 19:15 | 53.49332 | 9.90668 | 5011 ft | 244 kts | 229° |
| 2026-04-30 19:15 | 53.48284 | 9.88411 | 5012 ft | 245 kts | 229° |
| 2026-04-30 19:16 | 53.47238 | 9.86162 | 5011 ft | 244 kts | 229° |
| 2026-04-30 19:16 | 53.46190 | 9.83913 | 5011 ft | 245 kts | 229° |
| 2026-04-30 19:16 | 53.44092 | 9.79421 | 5012 ft | 245 kts | 229° |
| 2026-04-30 19:17 | 53.43042 | 9.77174 | 5013 ft | 245 kts | 229° |
| 2026-04-30 19:17 | 53.40942 | 9.72688 | 5014 ft | 245 kts | 229° |
| 2026-04-30 19:17 | 53.39893 | 9.70446 | 5006 ft | 245 kts | 229° |
| 2026-04-30 19:18 | 53.38488 | 9.67452 | 5009 ft | 244 kts | 229° |
| 2026-04-30 19:18 | 53.36742 | 9.63733 | 5009 ft | 244 kts | 229° |
| 2026-04-30 19:18 | 53.35692 | 9.61496 | 5015 ft | 244 kts | 229° |
| 2026-04-30 19:19 | 53.34647 | 9.59264 | 5005 ft | 244 kts | 229° |
| 2026-04-30 19:19 | 53.33694 | 9.56917 | 5000 ft | 246 kts | 245° |
| 2026-04-30 19:19 | 53.34099 | 9.51461 | 5005 ft | 248 kts | 310° |
| 2026-04-30 19:20 | 53.35448 | 9.49748 | 5008 ft | 244 kts | 342° |
| 2026-04-30 19:20 | 53.37089 | 9.49384 | 5005 ft | 237 kts | 10° |
| 2026-04-30 19:20 | 53.39732 | 9.52124 | 5014 ft | 225 kts | 52° |
| 2026-04-30 19:21 | 53.40710 | 9.54072 | 5001 ft | 211 kts | 52° |
| 2026-04-30 19:21 | 53.42510 | 9.57653 | 5003 ft | 196 kts | 53° |
| 2026-04-30 19:22 | 53.43966 | 9.60554 | 5010 ft | 195 kts | 53° |
| 2026-04-30 19:22 | 53.46596 | 9.65795 | 4725 ft | 196 kts | 52° |
| 2026-04-30 19:23 | 53.49262 | 9.71088 | 3930 ft | 200 kts | 52° |
| 2026-04-30 19:24 | 53.51009 | 9.74588 | 3403 ft | 191 kts | 52° |
| 2026-04-30 19:24 | 53.51854 | 9.76280 | 3135 ft | 186 kts | 52° |
| 2026-04-30 19:24 | 53.53492 | 9.79565 | 2640 ft | 182 kts | 52° |
| 2026-04-30 19:25 | 53.55858 | 9.84318 | 1907 ft | 163 kts | 53° |
| 2026-04-30 19:26 | 53.57184 | 9.87047 | 1778 ft | 140 kts | 54° |
| 2026-04-30 19:26 | 53.58434 | 9.89539 | 1196 ft | 137 kts | 53° |
| 2026-04-30 19:26 | 53.59033 | 9.90753 | 1017 ft | 134 kts | 52° |
| 2026-04-30 19:27 | 53.60243 | 9.93173 | 631 ft | 135 kts | 51° |
| 2026-04-30 19:27 | 53.61433 | 9.95583 | 254 ft | 133 kts | 51° |
| 2026-04-30 19:28 | 53.62028 | 9.96774 | 82 ft | 132 kts | 52° |
| 2026-04-30 19:28 | 53.62977 | 9.98701 | 49 ft | 80 kts | 50° |
| 2026-04-30 19:29 | 53.63286 | 9.99557 | 50 ft | 25 kts | 97° |
| 2026-04-30 19:29 | 53.63278 | 9.99640 | 50 ft | 0 kts | 99° |
| 2026-04-30 19:31 | 53.63273 | 9.99710 | 50 ft | 10 kts | 92° |
| 2026-04-30 19:31 | 53.63306 | 9.99820 | 50 ft | 12 kts | 51° |
| 2026-04-30 19:31 | 53.63421 | 10.00050 | 51 ft | 6 kts | 49° |
| 2026-04-30 19:32 | 53.63430 | 10.00069 | 51 ft | 7 kts | 49° |
| 2026-04-30 19:32 | 53.63454 | 10.00114 | 51 ft | 4 kts | 49° |
| 2026-04-30 19:32 | 53.63478 | 10.00185 | 51 ft | 10 kts | 97° |
| 2026-04-30 19:32 | 53.63456 | 10.00213 | 51 ft | 7 kts | 187° |
| 2026-04-30 19:33 | 53.63447 | 10.00245 | 51 ft | 3 kts | 84° |
| 2026-04-30 19:33 | 53.63449 | 10.00285 | 51 ft | 0 kts | 90° |
| 2026-04-30 19:33 | 53.63449 | 10.00296 | 51 ft | 3 kts | 88° |
| 2026-04-30 19:33 | 53.63449 | 10.00306 | 51 ft | 0 kts | 88° |
| 2026-04-30 19:34 | 53.63449 | 10.00311 | 51 ft | 0 kts | 88° |